sensor_id;sensor_type;location;lat;lon;timestamp;temperature;humidity
76936;DHT22;65881;52.438;16.744;2023-03-14T00:01:50;11.20;78.40
76936;DHT22;65881;52.438;16.744;2023-03-14T00:04:16;11.10;78.50
76936;DHT22;65881;52.438;16.744;2023-03-14T00:06:42;11.10;78.70
76936;DHT22;65881;52.438;16.744;2023-03-14T00:09:08;11.30;78.30
76936;DHT22;65881;52.438;16.744;2023-03-14T00:11:35;11.30;78.40
76936;DHT22;65881;52.438;16.744;2023-03-14T00:14:02;11.20;78.70
76936;DHT22;65881;52.438;16.744;2023-03-14T00:16:28;11.20;78.60
76936;DHT22;65881;52.438;16.744;2023-03-14T00:18:54;11.10;79.00
76936;DHT22;65881;52.438;16.744;2023-03-14T00:21:19;11.00;79.40
76936;DHT22;65881;52.438;16.744;2023-03-14T00:23:45;11.10;79.50
76936;DHT22;65881;52.438;16.744;2023-03-14T00:26:13;11.00;79.70
76936;DHT22;65881;52.438;16.744;2023-03-14T00:28:41;11.00;80.00
76936;DHT22;65881;52.438;16.744;2023-03-14T00:31:08;11.00;80.50
76936;DHT22;65881;52.438;16.744;2023-03-14T00:33:34;11.00;80.50
76936;DHT22;65881;52.438;16.744;2023-03-14T00:36:07;11.00;80.70
76936;DHT22;65881;52.438;16.744;2023-03-14T00:38:35;10.90;81.10
76936;DHT22;65881;52.438;16.744;2023-03-14T00:41:09;10.90;81.50
76936;DHT22;65881;52.438;16.744;2023-03-14T00:43:35;11.00;81.50
76936;DHT22;65881;52.438;16.744;2023-03-14T00:46:00;11.00;81.60
76936;DHT22;65881;52.438;16.744;2023-03-14T00:48:26;11.00;81.70
76936;DHT22;65881;52.438;16.744;2023-03-14T00:50:52;11.00;81.90
76936;DHT22;65881;52.438;16.744;2023-03-14T00:53:18;11.00;82.60
76936;DHT22;65881;52.438;16.744;2023-03-14T00:55:45;11.00;82.90
76936;DHT22;65881;52.438;16.744;2023-03-14T00:58:12;11.00;83.10
76936;DHT22;65881;52.438;16.744;2023-03-14T01:00:38;10.90;83.50
76936;DHT22;65881;52.438;16.744;2023-03-14T01:03:04;11.00;83.80
76936;DHT22;65881;52.438;16.744;2023-03-14T01:05:30;10.90;84.20
76936;DHT22;65881;52.438;16.744;2023-03-14T01:07:56;10.90;84.60
76936;DHT22;65881;52.438;16.744;2023-03-14T01:10:22;10.90;84.90
76936;DHT22;65881;52.438;16.744;2023-03-14T01:12:48;10.90;85.10
76936;DHT22;65881;52.438;16.744;2023-03-14T01:15:14;10.90;85.90
76936;DHT22;65881;52.438;16.744;2023-03-14T01:17:40;10.80;86.50
76936;DHT22;65881;52.438;16.744;2023-03-14T01:20:09;10.80;86.90
76936;DHT22;65881;52.438;16.744;2023-03-14T01:22:36;10.70;87.40
76936;DHT22;65881;52.438;16.744;2023-03-14T01:25:04;10.70;87.80
76936;DHT22;65881;52.438;16.744;2023-03-14T01:27:30;10.60;88.30
76936;DHT22;65881;52.438;16.744;2023-03-14T01:29:57;10.60;88.70
76936;DHT22;65881;52.438;16.744;2023-03-14T01:32:22;10.60;88.90
76936;DHT22;65881;52.438;16.744;2023-03-14T01:34:49;10.60;89.10
76936;DHT22;65881;52.438;16.744;2023-03-14T01:37:16;10.60;89.00
76936;DHT22;65881;52.438;16.744;2023-03-14T01:39:42;10.70;88.90
76936;DHT22;65881;52.438;16.744;2023-03-14T01:42:07;10.70;88.80
76936;DHT22;65881;52.438;16.744;2023-03-14T01:44:59;10.90;88.20
76936;DHT22;65881;52.438;16.744;2023-03-14T01:47:26;10.90;87.90
76936;DHT22;65881;52.438;16.744;2023-03-14T01:50:12;10.90;88.00
76936;DHT22;65881;52.438;16.744;2023-03-14T01:52:45;11.00;87.60
76936;DHT22;65881;52.438;16.744;2023-03-14T01:55:19;11.00;87.60
76936;DHT22;65881;52.438;16.744;2023-03-14T01:57:54;11.00;87.60
76936;DHT22;65881;52.438;16.744;2023-03-14T02:00:22;11.00;87.50
76936;DHT22;65881;52.438;16.744;2023-03-14T02:02:56;10.90;87.50
76936;DHT22;65881;52.438;16.744;2023-03-14T02:05:37;11.00;87.30
76936;DHT22;65881;52.438;16.744;2023-03-14T02:08:07;11.00;86.50
76936;DHT22;65881;52.438;16.744;2023-03-14T02:10:38;11.00;86.10
76936;DHT22;65881;52.438;16.744;2023-03-14T02:13:05;11.00;85.90
76936;DHT22;65881;52.438;16.744;2023-03-14T02:15:32;10.90;86.10
76936;DHT22;65881;52.438;16.744;2023-03-14T02:17:58;10.90;86.00
76936;DHT22;65881;52.438;16.744;2023-03-14T02:23:18;10.90;86.30
76936;DHT22;65881;52.438;16.744;2023-03-14T02:28:31;10.90;86.40
76936;DHT22;65881;52.438;16.744;2023-03-14T02:30:57;10.80;86.80
76936;DHT22;65881;52.438;16.744;2023-03-14T02:33:23;10.80;87.80
76936;DHT22;65881;52.438;16.744;2023-03-14T02:36:11;10.80;88.30
76936;DHT22;65881;52.438;16.744;2023-03-14T02:39:15;10.70;88.90
76936;DHT22;65881;52.438;16.744;2023-03-14T02:41:34;10.60;89.50
76936;DHT22;65881;52.438;16.744;2023-03-14T02:44:00;10.50;90.10
76936;DHT22;65881;52.438;16.744;2023-03-14T02:46:25;10.50;90.60
76936;DHT22;65881;52.438;16.744;2023-03-14T02:48:53;10.40;91.10
76936;DHT22;65881;52.438;16.744;2023-03-14T02:51:21;10.30;91.50
76936;DHT22;65881;52.438;16.744;2023-03-14T02:53:48;10.30;91.80
76936;DHT22;65881;52.438;16.744;2023-03-14T02:56:14;10.20;92.00
76936;DHT22;65881;52.438;16.744;2023-03-14T02:58:40;10.20;92.20
76936;DHT22;65881;52.438;16.744;2023-03-14T03:01:06;10.10;92.50
76936;DHT22;65881;52.438;16.744;2023-03-14T03:03:31;10.10;92.60
76936;DHT22;65881;52.438;16.744;2023-03-14T03:05:57;10.10;92.70
76936;DHT22;65881;52.438;16.744;2023-03-14T03:08:25;10.10;92.90
76936;DHT22;65881;52.438;16.744;2023-03-14T03:10:52;10.00;93.10
76936;DHT22;65881;52.438;16.744;2023-03-14T03:13:18;10.00;93.30
76936;DHT22;65881;52.438;16.744;2023-03-14T03:15:50;10.00;93.40
76936;DHT22;65881;52.438;16.744;2023-03-14T03:18:16;10.00;93.40
76936;DHT22;65881;52.438;16.744;2023-03-14T03:20:41;10.00;93.40
76936;DHT22;65881;52.438;16.744;2023-03-14T03:23:07;9.90;93.70
76936;DHT22;65881;52.438;16.744;2023-03-14T03:25:33;9.90;93.70
76936;DHT22;65881;52.438;16.744;2023-03-14T03:27:59;9.80;93.80
76936;DHT22;65881;52.438;16.744;2023-03-14T03:30:25;9.80;93.70
76936;DHT22;65881;52.438;16.744;2023-03-14T03:32:50;9.80;93.60
76936;DHT22;65881;52.438;16.744;2023-03-14T03:35:16;9.80;93.80
76936;DHT22;65881;52.438;16.744;2023-03-14T03:37:42;9.70;93.90
76936;DHT22;65881;52.438;16.744;2023-03-14T03:40:08;9.70;94.00
76936;DHT22;65881;52.438;16.744;2023-03-14T03:42:34;9.60;94.00
76936;DHT22;65881;52.438;16.744;2023-03-14T03:45:01;9.60;93.70
76936;DHT22;65881;52.438;16.744;2023-03-14T03:47:27;9.60;93.10
76936;DHT22;65881;52.438;16.744;2023-03-14T03:49:53;9.60;92.80
76936;DHT22;65881;52.438;16.744;2023-03-14T03:52:18;9.60;92.70
76936;DHT22;65881;52.438;16.744;2023-03-14T03:54:44;9.50;92.50
76936;DHT22;65881;52.438;16.744;2023-03-14T03:57:10;9.50;92.20
76936;DHT22;65881;52.438;16.744;2023-03-14T03:59:35;9.40;91.90
76936;DHT22;65881;52.438;16.744;2023-03-14T04:02:01;9.40;91.50
76936;DHT22;65881;52.438;16.744;2023-03-14T04:04:27;9.40;91.20
76936;DHT22;65881;52.438;16.744;2023-03-14T04:06:52;9.30;91.20
76936;DHT22;65881;52.438;16.744;2023-03-14T04:09:18;9.30;91.00
76936;DHT22;65881;52.438;16.744;2023-03-14T04:11:44;9.20;91.00
76936;DHT22;65881;52.438;16.744;2023-03-14T04:14:09;9.20;90.70
76936;DHT22;65881;52.438;16.744;2023-03-14T04:16:35;9.20;90.60
76936;DHT22;65881;52.438;16.744;2023-03-14T04:19:02;9.10;90.60
76936;DHT22;65881;52.438;16.744;2023-03-14T04:21:27;9.00;90.30
76936;DHT22;65881;52.438;16.744;2023-03-14T04:23:53;9.00;90.10
76936;DHT22;65881;52.438;16.744;2023-03-14T04:26:19;9.00;89.90
76936;DHT22;65881;52.438;16.744;2023-03-14T04:28:45;8.90;89.50
76936;DHT22;65881;52.438;16.744;2023-03-14T04:31:14;8.80;89.50
76936;DHT22;65881;52.438;16.744;2023-03-14T04:33:40;8.80;89.50
76936;DHT22;65881;52.438;16.744;2023-03-14T04:36:07;8.60;89.70
76936;DHT22;65881;52.438;16.744;2023-03-14T04:38:33;8.60;89.70
76936;DHT22;65881;52.438;16.744;2023-03-14T04:40:58;8.60;89.60
76936;DHT22;65881;52.438;16.744;2023-03-14T04:43:25;8.60;89.50
76936;DHT22;65881;52.438;16.744;2023-03-14T04:45:54;8.50;89.50
76936;DHT22;65881;52.438;16.744;2023-03-14T04:48:20;8.40;89.70
76936;DHT22;65881;52.438;16.744;2023-03-14T04:50:47;8.40;89.70
76936;DHT22;65881;52.438;16.744;2023-03-14T04:53:13;8.40;89.60
76936;DHT22;65881;52.438;16.744;2023-03-14T04:55:39;8.30;89.70
76936;DHT22;65881;52.438;16.744;2023-03-14T04:58:04;8.20;89.70
76936;DHT22;65881;52.438;16.744;2023-03-14T05:00:30;8.20;89.80
76936;DHT22;65881;52.438;16.744;2023-03-14T05:02:56;8.20;89.70
76936;DHT22;65881;52.438;16.744;2023-03-14T05:05:22;8.10;89.70
76936;DHT22;65881;52.438;16.744;2023-03-14T05:07:47;8.10;89.80
76936;DHT22;65881;52.438;16.744;2023-03-14T05:10:15;8.10;89.70
76936;DHT22;65881;52.438;16.744;2023-03-14T05:12:47;8.10;89.50
76936;DHT22;65881;52.438;16.744;2023-03-14T05:15:18;8.00;89.40
76936;DHT22;65881;52.438;16.744;2023-03-14T05:17:48;8.00;89.50
76936;DHT22;65881;52.438;16.744;2023-03-14T05:20:15;8.00;89.60
76936;DHT22;65881;52.438;16.744;2023-03-14T05:22:42;8.00;89.50
76936;DHT22;65881;52.438;16.744;2023-03-14T05:25:08;8.00;89.10
76936;DHT22;65881;52.438;16.744;2023-03-14T05:27:35;8.00;89.10
76936;DHT22;65881;52.438;16.744;2023-03-14T05:30:03;8.00;89.00
76936;DHT22;65881;52.438;16.744;2023-03-14T05:32:29;8.00;88.80
76936;DHT22;65881;52.438;16.744;2023-03-14T05:34:54;8.00;88.90
76936;DHT22;65881;52.438;16.744;2023-03-14T05:37:24;8.00;89.10
76936;DHT22;65881;52.438;16.744;2023-03-14T05:39:49;8.00;89.00
76936;DHT22;65881;52.438;16.744;2023-03-14T05:42:15;8.00;89.00
76936;DHT22;65881;52.438;16.744;2023-03-14T05:44:41;8.00;89.20
76936;DHT22;65881;52.438;16.744;2023-03-14T05:47:06;8.00;89.20
76936;DHT22;65881;52.438;16.744;2023-03-14T05:49:33;8.10;89.20
76936;DHT22;65881;52.438;16.744;2023-03-14T05:51:59;8.10;89.30
76936;DHT22;65881;52.438;16.744;2023-03-14T05:54:25;8.10;89.50
76936;DHT22;65881;52.438;16.744;2023-03-14T05:56:50;8.20;89.70
76936;DHT22;65881;52.438;16.744;2023-03-14T05:59:16;8.20;89.80
76936;DHT22;65881;52.438;16.744;2023-03-14T06:01:42;8.20;89.60
76936;DHT22;65881;52.438;16.744;2023-03-14T06:04:09;8.30;89.70
76936;DHT22;65881;52.438;16.744;2023-03-14T06:06:35;8.30;89.70
76936;DHT22;65881;52.438;16.744;2023-03-14T06:09:01;8.30;89.70
76936;DHT22;65881;52.438;16.744;2023-03-14T06:11:30;8.40;90.00
76936;DHT22;65881;52.438;16.744;2023-03-14T06:13:55;8.50;89.60
76936;DHT22;65881;52.438;16.744;2023-03-14T06:19:00;8.60;89.70
76936;DHT22;65881;52.438;16.744;2023-03-14T06:21:26;8.60;90.10
76936;DHT22;65881;52.438;16.744;2023-03-14T06:23:59;8.70;89.70
76936;DHT22;65881;52.438;16.744;2023-03-14T06:26:29;8.80;89.50
76936;DHT22;65881;52.438;16.744;2023-03-14T06:29:18;8.80;89.40
76936;DHT22;65881;52.438;16.744;2023-03-14T06:31:44;8.90;89.30
76936;DHT22;65881;52.438;16.744;2023-03-14T06:34:09;9.00;89.00
76936;DHT22;65881;52.438;16.744;2023-03-14T06:36:38;9.00;88.90
76936;DHT22;65881;52.438;16.744;2023-03-14T06:39:04;9.20;88.60
76936;DHT22;65881;52.438;16.744;2023-03-14T06:41:30;9.20;88.70
76936;DHT22;65881;52.438;16.744;2023-03-14T06:44:01;9.30;88.20
76936;DHT22;65881;52.438;16.744;2023-03-14T06:46:28;9.40;87.80
76936;DHT22;65881;52.438;16.744;2023-03-14T06:48:56;9.40;87.60
76936;DHT22;65881;52.438;16.744;2023-03-14T06:51:25;9.50;87.50
76936;DHT22;65881;52.438;16.744;2023-03-14T06:54:02;9.50;87.40
76936;DHT22;65881;52.438;16.744;2023-03-14T06:56:31;9.60;87.40
76936;DHT22;65881;52.438;16.744;2023-03-14T06:59:03;9.60;87.10
76936;DHT22;65881;52.438;16.744;2023-03-14T07:01:50;9.70;86.70
76936;DHT22;65881;52.438;16.744;2023-03-14T07:04:20;9.80;86.30
76936;DHT22;65881;52.438;16.744;2023-03-14T07:06:58;9.80;86.30
76936;DHT22;65881;52.438;16.744;2023-03-14T07:09:27;9.80;86.10
76936;DHT22;65881;52.438;16.744;2023-03-14T07:12:02;9.70;86.30
76936;DHT22;65881;52.438;16.744;2023-03-14T07:14:29;9.70;86.50
76936;DHT22;65881;52.438;16.744;2023-03-14T07:17:01;9.80;86.40
76936;DHT22;65881;52.438;16.744;2023-03-14T07:19:29;9.80;86.60
76936;DHT22;65881;52.438;16.744;2023-03-14T07:21:58;9.80;86.20
76936;DHT22;65881;52.438;16.744;2023-03-14T07:24:24;9.80;86.30
76936;DHT22;65881;52.438;16.744;2023-03-14T07:26:54;9.90;86.10
76936;DHT22;65881;52.438;16.744;2023-03-14T07:29:22;9.90;86.30
76936;DHT22;65881;52.438;16.744;2023-03-14T07:31:54;9.90;86.30
76936;DHT22;65881;52.438;16.744;2023-03-14T07:34:20;10.00;86.30
76936;DHT22;65881;52.438;16.744;2023-03-14T07:36:54;10.00;86.10
76936;DHT22;65881;52.438;16.744;2023-03-14T07:39:29;10.00;86.00
76936;DHT22;65881;52.438;16.744;2023-03-14T07:41:57;9.90;86.50
76936;DHT22;65881;52.438;16.744;2023-03-14T07:44:26;10.00;86.60
76936;DHT22;65881;52.438;16.744;2023-03-14T07:46:52;10.00;86.30
76936;DHT22;65881;52.438;16.744;2023-03-14T07:49:18;10.00;86.40
76936;DHT22;65881;52.438;16.744;2023-03-14T07:51:47;10.00;86.40
76936;DHT22;65881;52.438;16.744;2023-03-14T07:54:13;10.00;85.90
76936;DHT22;65881;52.438;16.744;2023-03-14T07:56:39;10.00;86.00
76936;DHT22;65881;52.438;16.744;2023-03-14T07:59:05;10.00;86.30
76936;DHT22;65881;52.438;16.744;2023-03-14T08:01:30;10.10;85.80
76936;DHT22;65881;52.438;16.744;2023-03-14T08:03:57;10.20;85.30
76936;DHT22;65881;52.438;16.744;2023-03-14T08:06:23;10.30;85.50
76936;DHT22;65881;52.438;16.744;2023-03-14T08:08:49;10.40;85.00
76936;DHT22;65881;52.438;16.744;2023-03-14T08:11:15;10.60;84.60
76936;DHT22;65881;52.438;16.744;2023-03-14T08:13:42;10.60;84.30
76936;DHT22;65881;52.438;16.744;2023-03-14T08:16:08;10.70;83.50
76936;DHT22;65881;52.438;16.744;2023-03-14T08:18:34;10.80;83.60
76936;DHT22;65881;52.438;16.744;2023-03-14T08:20:59;10.80;83.00
76936;DHT22;65881;52.438;16.744;2023-03-14T08:23:25;10.90;83.00
76936;DHT22;65881;52.438;16.744;2023-03-14T08:25:51;10.90;83.00
76936;DHT22;65881;52.438;16.744;2023-03-14T08:28:20;10.90;83.20
76936;DHT22;65881;52.438;16.744;2023-03-14T08:30:46;10.90;82.20
76936;DHT22;65881;52.438;16.744;2023-03-14T08:33:12;10.90;82.70
76936;DHT22;65881;52.438;16.744;2023-03-14T08:35:38;11.00;82.10
76936;DHT22;65881;52.438;16.744;2023-03-14T08:38:04;11.00;82.70
76936;DHT22;65881;52.438;16.744;2023-03-14T08:40:29;11.00;81.90
76936;DHT22;65881;52.438;16.744;2023-03-14T08:42:55;11.10;81.70
76936;DHT22;65881;52.438;16.744;2023-03-14T08:45:21;11.10;82.00
76936;DHT22;65881;52.438;16.744;2023-03-14T08:47:49;11.30;81.50
76936;DHT22;65881;52.438;16.744;2023-03-14T08:52:40;11.30;80.90
76936;DHT22;65881;52.438;16.744;2023-03-14T08:55:08;11.40;80.50
76936;DHT22;65881;52.438;16.744;2023-03-14T08:57:35;11.40;80.90
76936;DHT22;65881;52.438;16.744;2023-03-14T09:00:03;11.50;80.20
76936;DHT22;65881;52.438;16.744;2023-03-14T09:02:31;11.50;80.10
76936;DHT22;65881;52.438;16.744;2023-03-14T09:05:04;11.50;80.00
76936;DHT22;65881;52.438;16.744;2023-03-14T09:07:30;11.50;79.20
76936;DHT22;65881;52.438;16.744;2023-03-14T09:09:55;11.50;79.50
76936;DHT22;65881;52.438;16.744;2023-03-14T09:12:22;11.50;79.10
76936;DHT22;65881;52.438;16.744;2023-03-14T09:14:49;11.50;79.00
76936;DHT22;65881;52.438;16.744;2023-03-14T09:17:15;11.50;78.60
76936;DHT22;65881;52.438;16.744;2023-03-14T09:19:41;11.50;79.10
76936;DHT22;65881;52.438;16.744;2023-03-14T09:22:06;11.50;78.40
76936;DHT22;65881;52.438;16.744;2023-03-14T09:24:32;11.60;78.40
76936;DHT22;65881;52.438;16.744;2023-03-14T09:26:58;11.50;78.40
76936;DHT22;65881;52.438;16.744;2023-03-14T09:29:27;11.60;78.80
76936;DHT22;65881;52.438;16.744;2023-03-14T09:31:53;11.70;78.10
76936;DHT22;65881;52.438;16.744;2023-03-14T09:34:21;11.70;78.70
76936;DHT22;65881;52.438;16.744;2023-03-14T09:36:48;11.70;77.70
76936;DHT22;65881;52.438;16.744;2023-03-14T09:39:14;11.80;77.70
76936;DHT22;65881;52.438;16.744;2023-03-14T09:41:48;11.90;77.00
76936;DHT22;65881;52.438;16.744;2023-03-14T09:44:27;12.00;77.20
76936;DHT22;65881;52.438;16.744;2023-03-14T09:46:58;12.10;76.00
76936;DHT22;65881;52.438;16.744;2023-03-14T09:49:39;12.20;75.60
76936;DHT22;65881;52.438;16.744;2023-03-14T09:52:16;12.30;75.20
76936;DHT22;65881;52.438;16.744;2023-03-14T09:54:47;12.40;74.10
76936;DHT22;65881;52.438;16.744;2023-03-14T09:57:15;12.50;73.90
76936;DHT22;65881;52.438;16.744;2023-03-14T09:59:46;12.50;74.10
76936;DHT22;65881;52.438;16.744;2023-03-14T10:02:32;12.50;74.20
76936;DHT22;65881;52.438;16.744;2023-03-14T10:05:00;12.60;73.70
76936;DHT22;65881;52.438;16.744;2023-03-14T10:07:31;12.70;72.70
76936;DHT22;65881;52.438;16.744;2023-03-14T10:09:58;12.80;72.80
76936;DHT22;65881;52.438;16.744;2023-03-14T10:12:35;12.80;71.90
76936;DHT22;65881;52.438;16.744;2023-03-14T10:15:09;13.00;71.80
76936;DHT22;65881;52.438;16.744;2023-03-14T10:17:44;13.10;71.20
76936;DHT22;65881;52.438;16.744;2023-03-14T10:20:34;13.10;70.50
76936;DHT22;65881;52.438;16.744;2023-03-14T10:23:18;13.10;70.40
76936;DHT22;65881;52.438;16.744;2023-03-14T10:26:13;13.10;71.20
76936;DHT22;65881;52.438;16.744;2023-03-14T10:28:46;13.10;69.80
76936;DHT22;65881;52.438;16.744;2023-03-14T10:31:15;13.30;69.90
76936;DHT22;65881;52.438;16.744;2023-03-14T10:33:41;13.20;68.70
76936;DHT22;65881;52.438;16.744;2023-03-14T10:36:21;13.10;69.10
76936;DHT22;65881;52.438;16.744;2023-03-14T10:38:48;13.00;69.90
76936;DHT22;65881;52.438;16.744;2023-03-14T10:41:17;13.00;70.30
76936;DHT22;65881;52.438;16.744;2023-03-14T10:43:44;13.00;70.50
76936;DHT22;65881;52.438;16.744;2023-03-14T10:46:15;13.00;70.50
76936;DHT22;65881;52.438;16.744;2023-03-14T10:48:42;13.00;70.60
76936;DHT22;65881;52.438;16.744;2023-03-14T10:51:11;13.00;69.00
76936;DHT22;65881;52.438;16.744;2023-03-14T10:53:59;12.90;69.10
76936;DHT22;65881;52.438;16.744;2023-03-14T10:56:36;12.80;69.20
76936;DHT22;65881;52.438;16.744;2023-03-14T10:59:04;12.80;70.20
76936;DHT22;65881;52.438;16.744;2023-03-14T11:01:47;12.70;71.20
76936;DHT22;65881;52.438;16.744;2023-03-14T11:23:25;12.50;76.10
76936;DHT22;65881;52.438;16.744;2023-03-14T11:26:37;12.50;75.30
76936;DHT22;65881;52.438;16.744;2023-03-14T11:28:51;12.70;71.40
76936;DHT22;65881;52.438;16.744;2023-03-14T11:31:29;12.70;71.40
76936;DHT22;65881;52.438;16.744;2023-03-14T11:34:17;12.80;71.50
76936;DHT22;65881;52.438;16.744;2023-03-14T11:36:52;12.90;72.00
76936;DHT22;65881;52.438;16.744;2023-03-14T11:39:19;13.00;71.60
76936;DHT22;65881;52.438;16.744;2023-03-14T11:41:47;13.20;71.00
76936;DHT22;65881;52.438;16.744;2023-03-14T11:44:22;13.30;69.60
76936;DHT22;65881;52.438;16.744;2023-03-14T11:47:11;13.50;69.80
76936;DHT22;65881;52.438;16.744;2023-03-14T11:52:19;13.80;66.50
76936;DHT22;65881;52.438;16.744;2023-03-14T11:54:53;13.90;65.80
76936;DHT22;65881;52.438;16.744;2023-03-14T11:57:22;13.90;62.50
76936;DHT22;65881;52.438;16.744;2023-03-14T12:10:09;13.30;61.50
76936;DHT22;65881;52.438;16.744;2023-03-14T12:12:42;13.20;60.90
76936;DHT22;65881;52.438;16.744;2023-03-14T12:15:19;13.10;61.50
76936;DHT22;65881;52.438;16.744;2023-03-14T12:17:53;13.30;61.40
76936;DHT22;65881;52.438;16.744;2023-03-14T12:20:24;13.40;61.50
76936;DHT22;65881;52.438;16.744;2023-03-14T12:22:54;13.50;61.40
76936;DHT22;65881;52.438;16.744;2023-03-14T12:25:28;13.50;60.50
76936;DHT22;65881;52.438;16.744;2023-03-14T12:30:34;13.30;60.60
76936;DHT22;65881;52.438;16.744;2023-03-14T12:33:29;13.10;60.40
76936;DHT22;65881;52.438;16.744;2023-03-14T12:36:03;13.10;61.00
76936;DHT22;65881;52.438;16.744;2023-03-14T12:38:43;13.10;61.50
76936;DHT22;65881;52.438;16.744;2023-03-14T12:41:40;13.10;61.60
76936;DHT22;65881;52.438;16.744;2023-03-14T12:50:08;13.10;62.80
76936;DHT22;65881;52.438;16.744;2023-03-14T13:00:42;13.40;62.10
76936;DHT22;65881;52.438;16.744;2023-03-14T13:03:37;13.50;61.20
76936;DHT22;65881;52.438;16.744;2023-03-14T13:06:05;13.60;60.90
76936;DHT22;65881;52.438;16.744;2023-03-14T13:08:39;13.90;62.00
76936;DHT22;65881;52.438;16.744;2023-03-14T13:11:12;13.90;59.50
76936;DHT22;65881;52.438;16.744;2023-03-14T13:13:45;13.90;59.70
76936;DHT22;65881;52.438;16.744;2023-03-14T13:16:16;13.90;60.10
76936;DHT22;65881;52.438;16.744;2023-03-14T13:19:15;13.80;60.00
76936;DHT22;65881;52.438;16.744;2023-03-14T13:21:45;13.60;58.80
76936;DHT22;65881;52.438;16.744;2023-03-14T13:24:22;13.50;59.60
76936;DHT22;65881;52.438;16.744;2023-03-14T13:26:49;13.30;59.90
76936;DHT22;65881;52.438;16.744;2023-03-14T13:29:21;13.10;60.50
76936;DHT22;65881;52.438;16.744;2023-03-14T13:31:48;13.10;61.40
76936;DHT22;65881;52.438;16.744;2023-03-14T13:34:15;13.10;62.00
76936;DHT22;65881;52.438;16.744;2023-03-14T13:36:43;13.30;61.80
76936;DHT22;65881;52.438;16.744;2023-03-14T13:39:26;13.30;62.40
76936;DHT22;65881;52.438;16.744;2023-03-14T13:42:03;13.40;62.10
76936;DHT22;65881;52.438;16.744;2023-03-14T13:44:33;13.50;61.60
76936;DHT22;65881;52.438;16.744;2023-03-14T13:47:05;13.40;61.20
76936;DHT22;65881;52.438;16.744;2023-03-14T13:49:36;13.30;61.90
76936;DHT22;65881;52.438;16.744;2023-03-14T13:52:03;13.10;62.30
76936;DHT22;65881;52.438;16.744;2023-03-14T13:54:32;13.20;62.50
76936;DHT22;65881;52.438;16.744;2023-03-14T13:57:47;13.10;62.70
76936;DHT22;65881;52.438;16.744;2023-03-14T14:00:22;13.00;62.70
76936;DHT22;65881;52.438;16.744;2023-03-14T14:02:49;13.00;63.90
76936;DHT22;65881;52.438;16.744;2023-03-14T14:05:18;12.90;64.50
76936;DHT22;65881;52.438;16.744;2023-03-14T14:07:44;13.00;63.50
76936;DHT22;65881;52.438;16.744;2023-03-14T14:10:22;13.00;64.10
76936;DHT22;65881;52.438;16.744;2023-03-14T14:13:10;13.00;64.00
76936;DHT22;65881;52.438;16.744;2023-03-14T14:15:43;13.00;64.20
76936;DHT22;65881;52.438;16.744;2023-03-14T14:18:13;13.00;64.60
76936;DHT22;65881;52.438;16.744;2023-03-14T14:20:47;13.00;63.90
76936;DHT22;65881;52.438;16.744;2023-03-14T14:23:18;13.00;64.00
76936;DHT22;65881;52.438;16.744;2023-03-14T14:25:48;12.90;63.70
76936;DHT22;65881;52.438;16.744;2023-03-14T14:28:24;12.80;63.60
76936;DHT22;65881;52.438;16.744;2023-03-14T14:31:05;12.70;63.60
76936;DHT22;65881;52.438;16.744;2023-03-14T14:33:41;12.70;64.80
76936;DHT22;65881;52.438;16.744;2023-03-14T14:36:20;12.70;64.70
76936;DHT22;65881;52.438;16.744;2023-03-14T14:38:51;12.80;64.40
76936;DHT22;65881;52.438;16.744;2023-03-14T14:41:26;12.90;64.50
76936;DHT22;65881;52.438;16.744;2023-03-14T14:43:56;12.80;64.70
76936;DHT22;65881;52.438;16.744;2023-03-14T14:46:32;12.70;64.40
76936;DHT22;65881;52.438;16.744;2023-03-14T14:49:14;12.50;66.30
76936;DHT22;65881;52.438;16.744;2023-03-14T14:51:47;12.50;65.60
76936;DHT22;65881;52.438;16.744;2023-03-14T14:54:19;12.50;66.20
76936;DHT22;65881;52.438;16.744;2023-03-14T14:56:51;12.50;66.90
76936;DHT22;65881;52.438;16.744;2023-03-14T14:59:29;12.50;66.80
76936;DHT22;65881;52.438;16.744;2023-03-14T15:02:01;12.40;67.20
76936;DHT22;65881;52.438;16.744;2023-03-14T15:04:30;12.30;67.20
76936;DHT22;65881;52.438;16.744;2023-03-14T15:07:00;12.30;67.10
76936;DHT22;65881;52.438;16.744;2023-03-14T15:09:30;12.30;66.90
76936;DHT22;65881;52.438;16.744;2023-03-14T15:12:02;12.20;68.00
76936;DHT22;65881;52.438;16.744;2023-03-14T15:14:34;12.20;68.30
76936;DHT22;65881;52.438;16.744;2023-03-14T15:17:00;12.20;68.00
76936;DHT22;65881;52.438;16.744;2023-03-14T15:19:30;12.20;70.10
76936;DHT22;65881;52.438;16.744;2023-03-14T15:21:58;12.30;68.90
76936;DHT22;65881;52.438;16.744;2023-03-14T15:24:24;12.30;69.90
76936;DHT22;65881;52.438;16.744;2023-03-14T15:26:50;12.50;69.80
76936;DHT22;65881;52.438;16.744;2023-03-14T15:29:17;12.50;69.70
76936;DHT22;65881;52.438;16.744;2023-03-14T15:31:43;12.50;68.50
76936;DHT22;65881;52.438;16.744;2023-03-14T15:34:10;12.50;68.40
76936;DHT22;65881;52.438;16.744;2023-03-14T15:36:37;12.30;68.90
76936;DHT22;65881;52.438;16.744;2023-03-14T15:39:06;12.20;69.80
76936;DHT22;65881;52.438;16.744;2023-03-14T15:41:35;12.10;70.70
76936;DHT22;65881;52.438;16.744;2023-03-14T15:44:01;12.10;70.30
76936;DHT22;65881;52.438;16.744;2023-03-14T15:46:32;12.10;70.70
76936;DHT22;65881;52.438;16.744;2023-03-14T15:49:00;12.10;70.80
76936;DHT22;65881;52.438;16.744;2023-03-14T15:51:26;12.10;70.50
76936;DHT22;65881;52.438;16.744;2023-03-14T15:54:04;12.10;70.90
76936;DHT22;65881;52.438;16.744;2023-03-14T15:56:33;12.10;70.70
76936;DHT22;65881;52.438;16.744;2023-03-14T15:58:59;12.00;70.90
76936;DHT22;65881;52.438;16.744;2023-03-14T16:01:31;12.00;70.70
76936;DHT22;65881;52.438;16.744;2023-03-14T16:04:04;12.00;69.90
76936;DHT22;65881;52.438;16.744;2023-03-14T16:06:38;12.00;69.90
76936;DHT22;65881;52.438;16.744;2023-03-14T16:09:17;11.90;69.80
76936;DHT22;65881;52.438;16.744;2023-03-14T16:11:44;11.90;69.90
76936;DHT22;65881;52.438;16.744;2023-03-14T16:14:15;11.90;70.60
76936;DHT22;65881;52.438;16.744;2023-03-14T16:16:41;11.90;70.50
76936;DHT22;65881;52.438;16.744;2023-03-14T16:19:07;11.90;70.20
76936;DHT22;65881;52.438;16.744;2023-03-14T16:21:33;11.90;69.70
76936;DHT22;65881;52.438;16.744;2023-03-14T16:24:03;11.90;70.90
76936;DHT22;65881;52.438;16.744;2023-03-14T16:26:34;11.90;71.20
76936;DHT22;65881;52.438;16.744;2023-03-14T16:29:13;11.80;70.60
76936;DHT22;65881;52.438;16.744;2023-03-14T16:31:41;11.70;71.00
76936;DHT22;65881;52.438;16.744;2023-03-14T16:34:10;11.60;71.40
76936;DHT22;65881;52.438;16.744;2023-03-14T16:36:37;11.60;71.10